createdAt,value
2024-03-13T00:00:17.265Z,98838.42
2024-03-13T00:03:08.398Z,98842.05
2024-03-13T00:05:36.828Z,98839.17
2024-03-13T00:08:08.768Z,98838.42
2024-03-13T00:10:37.434Z,98841.23
2024-03-13T00:13:05.715Z,98839.27
2024-03-13T00:15:34.533Z,98841.79
2024-03-13T00:18:05.144Z,98845.82
2024-03-13T00:20:33.111Z,98848.39
2024-03-13T00:23:02.659Z,98845.42
2024-03-13T00:25:30.865Z,98846.27
2024-03-13T00:27:59.069Z,98845.38
2024-03-13T00:30:26.939Z,98843.21
2024-03-13T00:32:55.589Z,98845.14
2024-03-13T00:35:23.740Z,98841.79
2024-03-13T00:37:51.498Z,98845.61
2024-03-13T00:40:19.575Z,98845.83
2024-03-13T00:42:47.497Z,98840.33
2024-03-13T00:45:15.469Z,98840.93
2024-03-13T00:47:44.410Z,98837.77
2024-03-13T00:50:16.198Z,98839.98
2024-03-13T00:52:44.518Z,98840.55
2024-03-13T00:55:12.687Z,98840.25
2024-03-13T00:57:43.552Z,98838.89
2024-03-13T01:00:12.623Z,98840.64
2024-03-13T01:02:42.080Z,98838.15
2024-03-13T01:05:11.101Z,98839.52
2024-03-13T01:07:38.990Z,98841.92
2024-03-13T01:10:07.473Z,98841.87
2024-03-13T01:12:35.998Z,98843.46
2024-03-13T01:15:05.932Z,98843.09
2024-03-13T01:17:33.897Z,98844.41
2024-03-13T01:20:02.192Z,98843.11
2024-03-13T01:22:30.117Z,98845.02
2024-03-13T01:24:59.390Z,98844.02
2024-03-13T01:27:29.851Z,98847.17
2024-03-13T01:29:57.696Z,98848.42
2024-03-13T01:32:26.486Z,98845.84
2024-03-13T01:34:54.548Z,98841.48
2024-03-13T01:37:41.075Z,98841.48
2024-03-13T01:40:10.594Z,98840.45
2024-03-13T01:42:57.289Z,98843.61
2024-03-13T01:46:06.234Z,98841.04
2024-03-13T01:48:57.840Z,98838.73
2024-03-13T01:51:44.329Z,98841.20
2024-03-13T01:54:31.337Z,98842.75
2024-03-13T01:57:13.860Z,98842.76
2024-03-13T02:00:11.661Z,98839.05
2024-03-13T02:02:42.979Z,98837.50
2024-03-13T02:05:10.957Z,98839.12
2024-03-13T02:07:38.673Z,98837.38
2024-03-13T02:10:07.159Z,98835.59
2024-03-13T02:12:34.957Z,98834.63
2024-03-13T02:15:03.037Z,98838.06
2024-03-13T02:17:37.052Z,98834.36
2024-03-13T02:20:05.978Z,98843.26
2024-03-13T02:22:35.384Z,98845.86
2024-03-13T02:25:03.210Z,98843.17
2024-03-13T02:27:31.190Z,98850.14
2024-03-13T02:29:59.166Z,98846.71
2024-03-13T02:32:26.969Z,98847.36
2024-03-13T02:34:56.221Z,98843.94
2024-03-13T02:37:24.779Z,98847.66
2024-03-13T02:39:52.905Z,98851.06
2024-03-13T02:42:20.669Z,98856.47
2024-03-13T02:44:48.424Z,98854.45
2024-03-13T02:47:19.194Z,98856.72
2024-03-13T02:49:47.772Z,98857.71
2024-03-13T02:52:15.498Z,98857.21
2024-03-13T02:54:43.173Z,98856.57
2024-03-13T02:57:10.973Z,98861.05
2024-03-13T02:59:39.675Z,98859.77
2024-03-13T03:02:07.827Z,98857.53
2024-03-13T03:04:35.725Z,98862.38
2024-03-13T03:07:03.534Z,98861.16
2024-03-13T03:09:31.470Z,98861.42
2024-03-13T03:11:59.132Z,98863.44
2024-03-13T03:14:27.183Z,98863.42
2024-03-13T03:16:56.189Z,98865.11
2024-03-13T03:19:25.014Z,98867.31
2024-03-13T03:21:54.936Z,98865.35
2024-03-13T03:24:22.886Z,98869.02
2024-03-13T03:26:51.566Z,98867.88
2024-03-13T03:29:19.329Z,98867.88
2024-03-13T03:31:47.123Z,98867.84
2024-03-13T03:34:15.015Z,98868.24
2024-03-13T03:36:43.038Z,98872.08
2024-03-13T03:39:16.819Z,98871.86
2024-03-13T03:41:47.568Z,98877.77
2024-03-13T03:44:15.312Z,98874.02
2024-03-13T03:46:42.992Z,98872.87
2024-03-13T03:49:11.308Z,98877.03
2024-03-13T03:51:39.001Z,98872.39
2024-03-13T03:54:06.793Z,98872.89
2024-03-13T03:56:40.621Z,98873.48
2024-03-13T03:59:09.642Z,98874.75
2024-03-13T04:01:37.529Z,98878.38
2024-03-13T04:04:05.523Z,98878.36
2024-03-13T04:06:33.372Z,98880.66
2024-03-13T04:09:01.938Z,98883.52
2024-03-13T04:11:30.388Z,98883.56
2024-03-13T04:13:58.065Z,98885.52
2024-03-13T04:16:25.794Z,98883.77
2024-03-13T04:18:53.501Z,98885.52
2024-03-13T04:21:21.265Z,98889.89
2024-03-13T04:23:50.754Z,98884.36
2024-03-13T04:26:18.581Z,98889.82
2024-03-13T04:28:46.410Z,98892.75
2024-03-13T04:31:14.971Z,98894.35
2024-03-13T04:33:42.893Z,98895.77
2024-03-13T04:36:10.573Z,98894.94
2024-03-13T04:38:38.314Z,98896.20
2024-03-13T04:41:05.994Z,98900.45
2024-03-13T04:43:33.944Z,98903.90
2024-03-13T04:46:01.758Z,98910.89
2024-03-13T04:48:29.631Z,98913.59
2024-03-13T04:50:57.272Z,98912.92
2024-03-13T04:53:25.030Z,98917.88
2024-03-13T04:55:52.910Z,98920.08
2024-03-13T04:58:20.611Z,98923.13
2024-03-13T05:00:48.522Z,98923.34
2024-03-13T05:03:16.566Z,98923.95
2024-03-13T05:05:46.852Z,98921.05
2024-03-13T05:08:18.099Z,98923.85
2024-03-13T05:10:45.900Z,98923.19
2024-03-13T05:13:14.629Z,98923.61
2024-03-13T05:15:43.102Z,98926.17
2024-03-13T05:18:10.861Z,98926.93
2024-03-13T05:20:39.102Z,98929.41
2024-03-13T05:23:07.864Z,98929.39
2024-03-13T05:25:35.992Z,98930.03
2024-03-13T05:28:04.640Z,98928.30
2024-03-13T05:30:32.544Z,98929.27
2024-03-13T05:33:00.455Z,98925.79
2024-03-13T05:35:28.421Z,98930.42
2024-03-13T05:37:56.306Z,98936.02
2024-03-13T05:40:24.204Z,98937.17
2024-03-13T05:42:52.057Z,98940.46
2024-03-13T05:45:20.362Z,98942.98
2024-03-13T05:47:49.919Z,98937.24
2024-03-13T05:50:19.191Z,98938.11
2024-03-13T05:52:47.721Z,98940.73
2024-03-13T05:55:17.037Z,98938.27
2024-03-13T05:57:46.098Z,98939.14
2024-03-13T06:00:14.768Z,98948.39
2024-03-13T06:02:43.076Z,98946.84
2024-03-13T06:05:11.181Z,98948.94
2024-03-13T06:07:39.878Z,98952.70
2024-03-13T06:10:11.894Z,98952.60
2024-03-13T06:12:40.219Z,98952.75
2024-03-13T06:15:08.503Z,98957.44
2024-03-13T06:17:36.617Z,98959.75
2024-03-13T06:20:07.959Z,98958.91
2024-03-13T06:22:37.113Z,98961.68
2024-03-13T06:25:08.103Z,98961.92
2024-03-13T06:27:37.001Z,98965.71
2024-03-13T06:30:06.407Z,98968.45
2024-03-13T06:32:34.243Z,98971.27
2024-03-13T06:35:05.126Z,98975.05
2024-03-13T06:37:34.542Z,98979.39
2024-03-13T06:40:02.497Z,98984.10
2024-03-13T06:42:32.246Z,98987.25
2024-03-13T06:45:00.034Z,98985.76
2024-03-13T06:47:27.882Z,98987.35
2024-03-13T06:49:55.619Z,98986.91
2024-03-13T06:52:25.136Z,98984.27
2024-03-13T06:54:52.886Z,98989.86
2024-03-13T06:57:20.653Z,98990.42
2024-03-13T06:59:48.436Z,98991.17
2024-03-13T07:02:18.458Z,98993.23
2024-03-13T07:04:46.347Z,98996.38
2024-03-13T07:07:14.510Z,98999.04
2024-03-13T07:09:43.433Z,99001.77
2024-03-13T07:12:12.709Z,98999.98
2024-03-13T07:14:40.466Z,98999.89
2024-03-13T07:17:08.626Z,99001.34
2024-03-13T07:19:37.060Z,98996.80
2024-03-13T07:22:05.030Z,99001.11
2024-03-13T07:24:33.257Z,99001.97
2024-03-13T07:27:01.144Z,99003.83
2024-03-13T07:29:28.820Z,99005.52
2024-03-13T07:31:57.438Z,99006.63
2024-03-13T07:34:25.539Z,99012.17
2024-03-13T07:36:55.918Z,99009.73
2024-03-13T07:39:27.091Z,99013.13
2024-03-13T07:41:54.878Z,99013.99
2024-03-13T07:44:22.610Z,99013.58
2024-03-13T07:46:50.762Z,99014.44
2024-03-13T07:49:19.922Z,99012.67
2024-03-13T07:51:47.819Z,99017.38
2024-03-13T07:54:15.533Z,99017.96
2024-03-13T07:56:43.293Z,99020.47
2024-03-13T07:59:11.764Z,99024.98
2024-03-13T08:01:42.621Z,99029.35
2024-03-13T08:04:12.843Z,99032.54
2024-03-13T09:07:42.294Z,99057.35
2024-03-13T09:10:13.711Z,99059.35
2024-03-13T09:12:41.681Z,99061.08
2024-03-13T09:15:11.429Z,99059.92
2024-03-13T09:17:39.490Z,99064.02
2024-03-13T09:20:08.601Z,99064.23
2024-03-13T09:22:36.408Z,99064.63
2024-03-13T09:25:04.898Z,99064.84
2024-03-13T09:27:32.699Z,99067.07
2024-03-13T09:30:03.278Z,99071.30
2024-03-13T09:32:31.293Z,99071.91
2024-03-13T09:34:59.902Z,99078.26
2024-03-13T09:37:27.868Z,99079.04
2024-03-13T09:39:56.314Z,99081.05
2024-03-13T09:42:25.061Z,99086.66
2024-03-13T09:44:53.877Z,99083.57
2024-03-13T09:47:23.626Z,99087.77
2024-03-13T09:49:52.349Z,99084.98
2024-03-13T09:52:20.324Z,99082.73
2024-03-13T09:54:48.121Z,99088.08
2024-03-13T09:57:16.605Z,99089.55
2024-03-13T09:59:44.523Z,99087.35
2024-03-13T10:02:22.490Z,99087.52
2024-03-13T10:04:51.864Z,99085.23
2024-03-13T10:07:23.035Z,99086.89
2024-03-13T10:09:50.904Z,99089.36
2024-03-13T10:12:21.797Z,99093.80
2024-03-13T10:14:51.604Z,99092.96
2024-03-13T10:17:20.947Z,99091.69
2024-03-13T10:19:50.713Z,99091.08
2024-03-13T10:22:19.935Z,99090.67
2024-03-13T10:24:53.233Z,99093.90
2024-03-13T10:27:23.564Z,99097.39
2024-03-13T10:29:54.783Z,99101.55
2024-03-13T10:32:23.711Z,99101.05
2024-03-13T10:34:51.674Z,99106.19
2024-03-13T10:37:20.043Z,99107.14
2024-03-13T10:39:47.874Z,99106.80
2024-03-13T10:42:15.917Z,99111.84
2024-03-13T10:44:44.534Z,99111.47
2024-03-13T10:47:13.643Z,99118.80
2024-03-13T10:49:42.219Z,99121.59
2024-03-13T10:52:13.458Z,99123.66
2024-03-13T10:54:42.302Z,99120.52
2024-03-13T10:57:17.707Z,99127.02
2024-03-13T10:59:49.585Z,99126.60
2024-03-13T11:02:17.645Z,99130.41
2024-03-13T11:04:46.594Z,99126.61
2024-03-13T11:07:14.987Z,99126.92
2024-03-13T11:09:42.793Z,99125.61
2024-03-13T11:12:24.563Z,99120.94
2024-03-13T11:14:55.008Z,99122.39
2024-03-13T11:17:24.418Z,99125.63
2024-03-13T11:20:09.336Z,99125.83
2024-03-13T11:22:37.628Z,99123.23
2024-03-13T11:25:07.625Z,99125.16
2024-03-13T11:27:40.408Z,99122.84
2024-03-13T11:30:10.132Z,99121.29
2024-03-13T11:32:39.001Z,99122.35
2024-03-13T11:35:07.249Z,99120.55
2024-03-13T11:37:35.017Z,99120.64
2024-03-13T11:40:02.917Z,99118.93
2024-03-13T11:42:33.911Z,99115.95
2024-03-13T11:45:20.266Z,99117.71
2024-03-13T11:47:49.463Z,99115.38
2024-03-13T11:50:17.629Z,99117.88
2024-03-13T11:53:00.077Z,99113.95
2024-03-13T11:55:31.491Z,99119.22
2024-03-13T11:58:18.828Z,99115.65
2024-03-13T12:00:48.080Z,99112.05
2024-03-13T12:03:17.067Z,99107.05
2024-03-13T12:05:47.263Z,99102.05
2024-03-13T12:08:22.000Z,99100.59
2024-03-13T12:10:50.356Z,99096.41
2024-03-13T12:13:22.018Z,99095.55
2024-03-13T12:15:49.867Z,99095.71
2024-03-13T12:18:17.972Z,99097.35
2024-03-13T12:20:47.247Z,99094.80
2024-03-13T12:23:16.841Z,99094.67
2024-03-13T12:25:44.928Z,99091.94
2024-03-13T12:28:17.025Z,99088.37
2024-03-13T12:30:51.329Z,99082.36
2024-03-13T12:33:20.295Z,99083.64
2024-03-13T12:35:57.075Z,99077.52
2024-03-13T12:38:38.301Z,99076.31
2024-03-13T12:41:08.940Z,99079.68
2024-03-13T12:43:37.702Z,99079.29
2024-03-13T12:46:05.923Z,99078.05
2024-03-13T12:48:35.148Z,99078.95
2024-03-13T12:51:03.583Z,99078.42
2024-03-13T12:53:32.173Z,99085.02
2024-03-13T12:56:01.181Z,99086.27
2024-03-13T12:58:30.168Z,99089.42
2024-03-13T13:01:03.082Z,99089.45
2024-03-13T13:03:33.990Z,99090.53
2024-03-13T13:06:03.525Z,99085.55
2024-03-13T13:08:31.470Z,99089.59
2024-03-13T13:10:59.358Z,99085.14
2024-03-13T13:13:27.764Z,99088.64
2024-03-13T13:15:57.442Z,99089.36
2024-03-13T13:18:26.019Z,99096.32
2024-03-13T13:20:53.954Z,99095.16
2024-03-13T13:23:22.071Z,99099.20
2024-03-13T13:25:49.780Z,99103.80
2024-03-13T13:28:18.984Z,99106.39
2024-03-13T13:30:47.946Z,99104.89
2024-03-13T13:33:15.869Z,99103.30
2024-03-13T13:35:44.599Z,99101.40
2024-03-13T13:38:17.587Z,99099.29
2024-03-13T13:40:45.784Z,99095.99
2024-03-13T13:43:13.616Z,99097.97
2024-03-13T13:45:41.804Z,99104.71
2024-03-13T13:48:10.594Z,99104.11
2024-03-13T13:50:38.859Z,99102.54
2024-03-13T13:53:06.910Z,99097.42
2024-03-13T13:55:34.811Z,99098.24
2024-03-13T13:58:04.970Z,99100.98
2024-03-13T14:00:33.179Z,99106.58
2024-03-13T14:03:01.010Z,99108.90
2024-03-13T14:05:32.276Z,99110.33
2024-03-13T14:08:00.327Z,99102.80
2024-03-13T14:10:28.603Z,99108.38
2024-03-13T14:12:58.202Z,99107.28
2024-03-13T14:15:26.470Z,99104.86
2024-03-13T14:17:55.510Z,99100.39
2024-03-13T14:20:24.406Z,99100.30
2024-03-13T14:22:56.646Z,99099.63
2024-03-13T14:25:28.369Z,99102.27
2024-03-13T14:27:56.859Z,99105.22
2024-03-13T14:30:25.160Z,99105.65
2024-03-13T14:32:53.765Z,99109.14
2024-03-13T14:35:22.981Z,99104.64
2024-03-13T14:37:51.057Z,99104.89
2024-03-13T14:40:21.904Z,99103.45
2024-03-13T14:42:50.090Z,99102.36
2024-03-13T14:45:19.526Z,99101.95
2024-03-13T14:47:48.406Z,99103.19
2024-03-13T14:50:21.213Z,99102.48
2024-03-13T14:55:23.326Z,99106.90
2024-03-13T14:57:51.155Z,99112.02
2024-03-13T15:00:19.144Z,99112.28
2024-03-13T15:02:48.031Z,99111.92
2024-03-13T15:05:16.260Z,99114.31
2024-03-13T15:07:43.948Z,99118.91
2024-03-13T15:10:12.561Z,99114.77
2024-03-13T15:12:41.983Z,99118.27
2024-03-13T15:15:11.710Z,99121.05
2024-03-13T15:17:43.660Z,99118.03
2024-03-13T15:20:14.848Z,99118.63
2024-03-13T15:22:44.340Z,99119.52
2024-03-13T15:25:12.619Z,99119.28
2024-03-13T15:27:40.258Z,99119.65
2024-03-13T15:30:10.283Z,99118.61
2024-03-13T15:32:39.298Z,99126.27
2024-03-13T15:35:07.486Z,99120.71
2024-03-13T15:37:35.629Z,99118.80
2024-03-13T15:40:11.966Z,99122.46
2024-03-13T15:42:41.610Z,99123.85
2024-03-13T15:45:12.290Z,99124.36
2024-03-13T15:47:44.216Z,99128.20
2024-03-13T15:50:24.153Z,99127.44
2024-03-13T15:52:57.558Z,99130.00
2024-03-13T15:55:25.590Z,99133.35
2024-03-13T15:57:53.631Z,99131.85
2024-03-13T16:00:25.853Z,99132.91
2024-03-13T16:02:56.920Z,99134.29
2024-03-13T16:05:27.948Z,99134.55
2024-03-13T16:08:05.906Z,99135.11
2024-03-13T16:10:33.876Z,99140.21
2024-03-13T16:13:01.569Z,99149.80
2024-03-13T16:15:29.502Z,99148.73
2024-03-13T16:17:59.475Z,99152.47
2024-03-13T16:20:27.744Z,99149.63
2024-03-13T16:22:58.460Z,99154.30
2024-03-13T16:25:26.861Z,99151.54
2024-03-13T16:27:54.792Z,99151.96
2024-03-13T16:30:24.596Z,99155.17
2024-03-13T16:32:52.652Z,99151.60
2024-03-13T16:35:22.030Z,99150.50
2024-03-13T16:37:49.849Z,99150.32
2024-03-13T16:40:19.144Z,99150.14
2024-03-13T16:42:47.622Z,99154.03
2024-03-13T16:45:19.638Z,99160.39
2024-03-13T16:47:48.299Z,99160.54
2024-03-13T16:50:17.295Z,99163.33
2024-03-13T16:52:45.952Z,99165.70
2024-03-13T16:55:13.825Z,99163.55
2024-03-13T16:57:43.476Z,99168.25
2024-03-13T17:00:16.183Z,99167.78
2024-03-13T17:02:45.582Z,99172.43
2024-03-13T17:05:15.876Z,99174.36
2024-03-13T17:07:44.779Z,99173.45
2024-03-13T17:10:13.196Z,99175.63
2024-03-13T17:12:41.107Z,99175.65
2024-03-13T17:15:09.794Z,99177.00
2024-03-13T17:17:37.639Z,99177.34
2024-03-13T17:20:11.255Z,99176.56
2024-03-13T17:22:39.181Z,99179.71
2024-03-13T17:25:07.033Z,99177.48
2024-03-13T17:27:38.044Z,99181.38
2024-03-13T17:30:06.559Z,99184.52
2024-03-13T17:32:34.489Z,99186.10
2024-03-13T17:35:03.980Z,99187.77
2024-03-13T17:37:32.481Z,99187.21
2024-03-13T17:40:00.502Z,99188.03
2024-03-13T17:42:28.816Z,99189.52
2024-03-13T17:44:59.451Z,99189.59
2024-03-13T17:47:27.149Z,99188.80
2024-03-13T17:49:55.157Z,99192.06
2024-03-13T17:52:22.904Z,99187.80
2024-03-13T17:54:53.362Z,99188.51
2024-03-13T17:57:21.548Z,99181.11
2024-03-13T17:59:49.648Z,99181.20
2024-03-13T18:02:19.818Z,99183.35
2024-03-13T18:04:47.990Z,99185.25
2024-03-13T18:07:16.348Z,99190.83
2024-03-13T18:09:44.280Z,99195.11
2024-03-13T18:12:12.398Z,99191.16
2024-03-13T18:14:41.171Z,99192.66
2024-03-13T18:17:10.183Z,99193.05
2024-03-13T18:19:40.156Z,99194.48
2024-03-13T18:22:08.885Z,99199.38
2024-03-13T18:24:37.057Z,99195.61
2024-03-13T18:27:05.315Z,99197.84
2024-03-13T18:29:33.292Z,99195.30
2024-03-13T18:32:01.381Z,99198.61
2024-03-13T18:34:34.280Z,99198.25
2024-03-13T18:37:03.623Z,99201.66
2024-03-13T18:39:31.766Z,99204.42
2024-03-13T18:41:59.628Z,99205.17
2024-03-13T18:44:27.504Z,99201.80
2024-03-13T18:46:56.156Z,99203.69
2024-03-13T18:49:24.047Z,99201.18
2024-03-13T18:51:52.524Z,99201.91
2024-03-13T18:54:22.679Z,99198.73
2024-03-13T18:56:51.736Z,99196.98
2024-03-13T18:59:19.726Z,99195.42
2024-03-13T19:01:48.065Z,99199.14
2024-03-13T19:04:15.835Z,99199.42
2024-03-13T19:06:45.225Z,99199.27
2024-03-13T19:09:14.350Z,99201.01
2024-03-13T19:11:42.992Z,99200.48
2024-03-13T19:14:11.109Z,99202.95
2024-03-13T19:16:42.363Z,99199.18
2024-03-13T19:19:10.141Z,99200.89
2024-03-13T19:21:40.690Z,99199.17
2024-03-13T19:24:10.381Z,99200.88
2024-03-13T19:26:38.257Z,99199.33
2024-03-13T19:29:05.999Z,99200.20
2024-03-13T19:31:39.107Z,99196.84
2024-03-13T19:34:09.065Z,99200.98
2024-03-13T19:36:37.725Z,99203.23
2024-03-13T19:39:05.540Z,99202.93
2024-03-13T19:41:33.522Z,99203.82
2024-03-13T19:44:01.241Z,99204.05
2024-03-13T19:46:29.621Z,99213.64
2024-03-13T19:48:58.733Z,99217.59
2024-03-13T19:51:27.091Z,99211.16
2024-03-13T19:53:54.955Z,99214.36
2024-03-13T19:56:22.856Z,99212.30
2024-03-13T19:58:51.434Z,99216.71
2024-03-13T20:01:20.061Z,99222.10
2024-03-13T20:03:47.836Z,99221.95
2024-03-13T20:06:16.112Z,99223.09
2024-03-13T20:08:44.060Z,99220.05
2024-03-13T20:11:13.469Z,99218.00
2024-03-13T20:13:42.912Z,99214.06
2024-03-13T20:16:13.400Z,99214.45
2024-03-13T20:18:41.636Z,99213.20
2024-03-13T20:21:09.500Z,99210.79
2024-03-13T20:23:38.327Z,99211.55
2024-03-13T20:26:06.160Z,99211.99
2024-03-13T20:28:33.865Z,99213.99
2024-03-13T20:31:05.189Z,99208.56
2024-03-13T20:33:33.300Z,99212.21
2024-03-13T20:36:01.453Z,99211.73
2024-03-13T20:38:30.422Z,99208.67
2024-03-13T20:40:59.304Z,99206.57
2024-03-13T20:43:27.429Z,99206.20
2024-03-13T20:45:55.397Z,99205.07
2024-03-13T20:48:24.229Z,99204.73
2024-03-13T20:50:52.712Z,99205.70
2024-03-13T20:53:20.631Z,99203.35
2024-03-13T20:55:49.561Z,99204.25
2024-03-13T20:58:18.345Z,99203.05
2024-03-13T21:00:46.228Z,99200.62
2024-03-13T21:03:14.592Z,99198.58
2024-03-13T21:05:43.031Z,99199.51
2024-03-13T21:08:10.921Z,99199.52
2024-03-13T21:10:41.039Z,99199.48
2024-03-13T21:13:10.525Z,99202.42
2024-03-13T21:15:46.026Z,99203.42
2024-03-13T21:18:30.979Z,99206.23
2024-03-13T21:20:58.992Z,99204.05
2024-03-13T21:23:26.804Z,99205.70
2024-03-13T21:25:54.459Z,99204.63
2024-03-13T21:28:22.113Z,99204.77
2024-03-13T21:30:49.774Z,99205.48
2024-03-13T21:33:18.680Z,99204.90
2024-03-13T21:35:46.930Z,99202.32
2024-03-13T21:38:14.667Z,99205.21
2024-03-13T21:40:42.378Z,99204.44
2024-03-13T21:43:10.113Z,99205.31
2024-03-13T21:45:37.785Z,99204.38
2024-03-13T21:48:08.780Z,99208.63
2024-03-13T21:50:39.911Z,99208.38
2024-03-13T21:53:11.476Z,99203.92
2024-03-13T21:55:39.276Z,99203.39
2024-03-13T21:58:07.150Z,99198.58
2024-03-13T22:00:35.010Z,99198.48
2024-03-13T22:03:03.139Z,99195.59
2024-03-13T22:05:31.539Z,99198.44
2024-03-13T22:08:00.419Z,99201.92
2024-03-13T22:10:28.327Z,99203.92
2024-03-13T22:12:56.732Z,99204.86
2024-03-13T22:15:24.455Z,99203.34
2024-03-13T22:17:52.470Z,99204.65
2024-03-13T22:20:20.352Z,99202.03
2024-03-13T22:22:48.658Z,99196.92
2024-03-13T22:25:16.649Z,99200.92
2024-03-13T22:27:45.725Z,99201.63
2024-03-13T22:30:13.576Z,99199.50
2024-03-13T22:32:42.120Z,99199.79
2024-03-13T22:35:10.038Z,99198.20
2024-03-13T22:37:37.792Z,99199.88
2024-03-13T22:40:08.341Z,99203.05
2024-03-13T22:42:36.257Z,99199.35
2024-03-13T22:45:05.385Z,99198.46
2024-03-13T22:47:33.136Z,99196.72
2024-03-13T22:50:01.014Z,99195.39
2024-03-13T22:52:28.904Z,99198.44
2024-03-13T22:54:56.764Z,99194.31
2024-03-13T22:57:24.665Z,99194.54
2024-03-13T22:59:52.924Z,99195.17
2024-03-13T23:02:21.328Z,99196.73
2024-03-13T23:04:49.026Z,99196.89
2024-03-13T23:07:17.805Z,99190.61
2024-03-13T23:09:45.867Z,99190.39
2024-03-13T23:12:13.716Z,99188.61
2024-03-13T23:14:41.500Z,99187.48
2024-03-13T23:17:11.337Z,99184.33
2024-03-13T23:19:39.274Z,99187.68
2024-03-13T23:22:08.159Z,99184.83
2024-03-13T23:24:36.188Z,99185.49
2024-03-13T23:27:04.200Z,99185.15
2024-03-13T23:29:31.965Z,99185.70
2024-03-13T23:32:02.416Z,99185.60
2024-03-13T23:34:33.134Z,99184.32
2024-03-13T23:37:01.569Z,99183.52
2024-03-13T23:39:29.889Z,99183.95
2024-03-13T23:41:58.036Z,99185.75
2024-03-13T23:44:26.709Z,99183.80
2024-03-13T23:46:54.391Z,99187.23
2024-03-13T23:49:23.808Z,99189.11
2024-03-13T23:51:51.673Z,99188.92
2024-03-13T23:54:19.410Z,99192.04
2024-03-13T23:56:47.158Z,99190.64
2024-03-13T23:59:14.970Z,99193.92
